Terminal Aerodrome Forecast
Issued by NWS Glasgow, MT

Home | Current Version | Previous Version | Text Only | Print | Product List | Glossary On
Versions: 1 2 3 4 5 6 7 8 9 10 11 12
000
FTUS45 KGGW 181100
TAFGGW
TAF
KGGW 181127Z 1812/1912 12011KT P6SM SCT200
     FM181700 20009KT P6SM BKN200
     FM181900 23013KT P6SM SCT100 BKN200
     FM190500 26007KT P6SM SCT150=

USA.gov is the U.S. government's official web portal to all federal, state and local government web resources and services.